sensor_id;sensor_type;location;lat;lon;timestamp;temperature;humidity
75357;HTU21D;63946;51.986;5.930;2023-08-07T04:58:40;14.72;79.47
75357;HTU21D;63946;51.986;5.930;2023-08-07T05:01:08;14.73;79.38
75357;HTU21D;63946;51.986;5.930;2023-08-07T05:03:37;14.73;79.40
75357;HTU21D;63946;51.986;5.930;2023-08-07T05:06:06;14.73;79.38
75357;HTU21D;63946;51.986;5.930;2023-08-07T05:08:35;14.75;79.31
75357;HTU21D;63946;51.986;5.930;2023-08-07T05:11:03;14.74;79.37
75357;HTU21D;63946;51.986;5.930;2023-08-07T05:13:32;14.78;79.39
75357;HTU21D;63946;51.986;5.930;2023-08-07T05:16:01;14.80;79.30
75357;HTU21D;63946;51.986;5.930;2023-08-07T05:18:30;14.81;79.44
75357;HTU21D;63946;51.986;5.930;2023-08-07T05:20:59;14.84;79.38
75357;HTU21D;63946;51.986;5.930;2023-08-07T05:23:28;14.84;79.40
75357;HTU21D;63946;51.986;5.930;2023-08-07T05:25:57;14.84;79.43
75357;HTU21D;63946;51.986;5.930;2023-08-07T05:28:25;14.85;79.38
75357;HTU21D;63946;51.986;5.930;2023-08-07T05:30:54;14.87;79.46
75357;HTU21D;63946;51.986;5.930;2023-08-07T05:33:23;14.86;79.46
75357;HTU21D;63946;51.986;5.930;2023-08-07T05:35:52;14.89;79.46
75357;HTU21D;63946;51.986;5.930;2023-08-07T05:38:21;14.91;79.48
75357;HTU21D;63946;51.986;5.930;2023-08-07T05:40:50;14.92;79.45
75357;HTU21D;63946;51.986;5.930;2023-08-07T05:43:18;14.92;79.44
75357;HTU21D;63946;51.986;5.930;2023-08-07T05:45:47;14.94;79.43
75357;HTU21D;63946;51.986;5.930;2023-08-07T05:48:17;14.94;79.40
75357;HTU21D;63946;51.986;5.930;2023-08-07T05:50:45;14.94;79.40
75357;HTU21D;63946;51.986;5.930;2023-08-07T05:53:14;14.97;79.30
75357;HTU21D;63946;51.986;5.930;2023-08-07T05:55:43;14.98;79.33
75357;HTU21D;63946;51.986;5.930;2023-08-07T05:58:11;15.02;79.27
75357;HTU21D;63946;51.986;5.930;2023-08-07T06:00:40;15.07;79.27
75357;HTU21D;63946;51.986;5.930;2023-08-07T06:03:10;15.11;79.17
75357;HTU21D;63946;51.986;5.930;2023-08-07T06:05:38;15.16;79.11
75357;HTU21D;63946;51.986;5.930;2023-08-07T06:08:07;15.19;79.08
75357;HTU21D;63946;51.986;5.930;2023-08-07T06:10:37;15.22;79.04
75357;HTU21D;63946;51.986;5.930;2023-08-07T06:13:08;15.22;78.99
75357;HTU21D;63946;51.986;5.930;2023-08-07T06:15:38;15.22;78.99
75357;HTU21D;63946;51.986;5.930;2023-08-07T06:18:07;15.26;79.00
75357;HTU21D;63946;51.986;5.930;2023-08-07T06:20:35;15.29;78.90
75357;HTU21D;63946;51.986;5.930;2023-08-07T06:23:04;15.36;78.77
75357;HTU21D;63946;51.986;5.930;2023-08-07T06:25:33;15.42;78.52
75357;HTU21D;63946;51.986;5.930;2023-08-07T06:28:02;15.49;78.27
75357;HTU21D;63946;51.986;5.930;2023-08-07T06:30:31;15.56;78.16
75357;HTU21D;63946;51.986;5.930;2023-08-07T06:33:00;15.63;78.10
75357;HTU21D;63946;51.986;5.930;2023-08-07T06:35:29;15.70;77.98
75357;HTU21D;63946;51.986;5.930;2023-08-07T06:37:58;15.73;77.91
75357;HTU21D;63946;51.986;5.930;2023-08-07T06:40:27;15.77;77.81
75357;HTU21D;63946;51.986;5.930;2023-08-07T06:42:56;15.81;77.68
75357;HTU21D;63946;51.986;5.930;2023-08-07T06:45:25;15.88;77.50
75357;HTU21D;63946;51.986;5.930;2023-08-07T06:47:53;15.88;77.39
75357;HTU21D;63946;51.986;5.930;2023-08-07T06:50:24;15.91;77.44
75357;HTU21D;63946;51.986;5.930;2023-08-07T06:52:53;16.00;77.31
75357;HTU21D;63946;51.986;5.930;2023-08-07T06:55:22;16.10;77.21
75357;HTU21D;63946;51.986;5.930;2023-08-07T06:57:51;16.24;76.93
75357;HTU21D;63946;51.986;5.930;2023-08-07T07:00:20;16.35;76.63
75357;HTU21D;63946;51.986;5.930;2023-08-07T07:02:48;16.45;76.46
75357;HTU21D;63946;51.986;5.930;2023-08-07T07:05:18;16.55;76.18
75357;HTU21D;63946;51.986;5.930;2023-08-07T07:07:47;16.64;75.91
75357;HTU21D;63946;51.986;5.930;2023-08-07T07:10:16;16.74;75.83
75357;HTU21D;63946;51.986;5.930;2023-08-07T07:12:45;16.87;75.63
75357;HTU21D;63946;51.986;5.930;2023-08-07T07:15:14;16.93;75.37
75357;HTU21D;63946;51.986;5.930;2023-08-07T07:17:42;16.91;75.39
75357;HTU21D;63946;51.986;5.930;2023-08-07T07:20:11;16.94;75.40
75357;HTU21D;63946;51.986;5.930;2023-08-07T07:22:40;17.04;75.19
75357;HTU21D;63946;51.986;5.930;2023-08-07T07:25:09;17.15;74.83
75357;HTU21D;63946;51.986;5.930;2023-08-07T07:27:39;17.21;74.74
75357;HTU21D;63946;51.986;5.930;2023-08-07T07:30:08;17.25;74.67
75357;HTU21D;63946;51.986;5.930;2023-08-07T07:32:37;17.28;74.67
75357;HTU21D;63946;51.986;5.930;2023-08-07T07:35:06;17.28;74.52
75357;HTU21D;63946;51.986;5.930;2023-08-07T07:37:35;17.24;74.54
75357;HTU21D;63946;51.986;5.930;2023-08-07T07:40:04;17.24;74.43
75357;HTU21D;63946;51.986;5.930;2023-08-07T07:42:34;17.16;74.47
75357;HTU21D;63946;51.986;5.930;2023-08-07T07:45:06;17.10;74.54
75357;HTU21D;63946;51.986;5.930;2023-08-07T07:47:35;17.23;74.48
75357;HTU21D;63946;51.986;5.930;2023-08-07T07:50:06;17.59;73.97
75357;HTU21D;63946;51.986;5.930;2023-08-07T07:52:35;17.98;73.10
75357;HTU21D;63946;51.986;5.930;2023-08-07T07:55:04;18.13;72.55
75357;HTU21D;63946;51.986;5.930;2023-08-07T07:57:35;18.25;72.34
75357;HTU21D;63946;51.986;5.930;2023-08-07T08:00:04;18.18;72.09
75357;HTU21D;63946;51.986;5.930;2023-08-07T08:02:37;17.95;72.27
75357;HTU21D;63946;51.986;5.930;2023-08-07T08:05:09;17.70;72.51
75357;HTU21D;63946;51.986;5.930;2023-08-07T08:07:38;17.50;73.00
75357;HTU21D;63946;51.986;5.930;2023-08-07T08:10:08;17.32;73.06
75357;HTU21D;63946;51.986;5.930;2023-08-07T08:12:39;17.13;73.00
75357;HTU21D;63946;51.986;5.930;2023-08-07T08:15:08;17.01;73.10
75357;HTU21D;63946;51.986;5.930;2023-08-07T08:17:37;16.89;73.22
75357;HTU21D;63946;51.986;5.930;2023-08-07T08:20:06;16.88;73.06
75357;HTU21D;63946;51.986;5.930;2023-08-07T08:22:35;16.91;72.75
75357;HTU21D;63946;51.986;5.930;2023-08-07T08:25:04;17.10;72.22
75357;HTU21D;63946;51.986;5.930;2023-08-07T08:27:35;17.38;71.81
75357;HTU21D;63946;51.986;5.930;2023-08-07T08:30:04;17.68;71.16
75357;HTU21D;63946;51.986;5.930;2023-08-07T08:32:33;17.91;70.39
75357;HTU21D;63946;51.986;5.930;2023-08-07T08:35:02;18.11;69.72
75357;HTU21D;63946;51.986;5.930;2023-08-07T08:37:31;18.32;69.15
75357;HTU21D;63946;51.986;5.930;2023-08-07T08:40:00;18.48;68.76
75357;HTU21D;63946;51.986;5.930;2023-08-07T08:42:29;18.61;68.44
75357;HTU21D;63946;51.986;5.930;2023-08-07T08:44:58;18.77;67.95
75357;HTU21D;63946;51.986;5.930;2023-08-07T08:47:29;18.73;67.38
75357;HTU21D;63946;51.986;5.930;2023-08-07T08:50:08;18.77;67.14
75357;HTU21D;63946;51.986;5.930;2023-08-07T08:52:41;18.59;67.34
75357;HTU21D;63946;51.986;5.930;2023-08-07T08:55:11;18.37;67.70
75357;HTU21D;63946;51.986;5.930;2023-08-07T08:57:40;18.07;68.52
75357;HTU21D;63946;51.986;5.930;2023-08-07T09:00:10;17.81;69.55
75357;HTU21D;63946;51.986;5.930;2023-08-07T09:02:45;17.54;70.17
75357;HTU21D;63946;51.986;5.930;2023-08-07T09:05:17;17.33;70.69
75357;HTU21D;63946;51.986;5.930;2023-08-07T09:07:49;17.24;71.16
75357;HTU21D;63946;51.986;5.930;2023-08-07T09:10:18;17.30;71.40
75357;HTU21D;63946;51.986;5.930;2023-08-07T09:13:01;17.62;71.13
75357;HTU21D;63946;51.986;5.930;2023-08-07T09:15:32;17.98;70.48
75357;HTU21D;63946;51.986;5.930;2023-08-07T09:18:06;18.19;70.28
75357;HTU21D;63946;51.986;5.930;2023-08-07T09:20:37;18.42;69.94
75357;HTU21D;63946;51.986;5.930;2023-08-07T09:23:07;18.65;69.61
75357;HTU21D;63946;51.986;5.930;2023-08-07T09:25:35;18.85;69.18
75357;HTU21D;63946;51.986;5.930;2023-08-07T09:28:05;19.02;68.76
75357;HTU21D;63946;51.986;5.930;2023-08-07T09:30:36;19.16;68.65
75357;HTU21D;63946;51.986;5.930;2023-08-07T09:33:04;19.43;67.83
75357;HTU21D;63946;51.986;5.930;2023-08-07T09:35:33;19.47;66.87
75357;HTU21D;63946;51.986;5.930;2023-08-07T09:38:03;19.57;66.19
75357;HTU21D;63946;51.986;5.930;2023-08-07T09:40:32;19.35;66.28
75357;HTU21D;63946;51.986;5.930;2023-08-07T09:43:01;19.02;66.76
75357;HTU21D;63946;51.986;5.930;2023-08-07T09:45:30;18.81;67.55
75357;HTU21D;63946;51.986;5.930;2023-08-07T09:48:04;18.80;67.85
75357;HTU21D;63946;51.986;5.930;2023-08-07T09:50:33;18.82;67.54
75357;HTU21D;63946;51.986;5.930;2023-08-07T09:53:02;18.95;67.22
75357;HTU21D;63946;51.986;5.930;2023-08-07T09:55:31;19.03;66.43
75357;HTU21D;63946;51.986;5.930;2023-08-07T09:58:01;19.23;65.78
75357;HTU21D;63946;51.986;5.930;2023-08-07T10:00:40;19.38;65.01
75357;HTU21D;63946;51.986;5.930;2023-08-07T10:03:09;19.46;64.91
75357;HTU21D;63946;51.986;5.930;2023-08-07T10:05:37;19.69;64.66
75357;HTU21D;63946;51.986;5.930;2023-08-07T10:08:06;19.89;64.15
75357;HTU21D;63946;51.986;5.930;2023-08-07T10:10:37;19.97;62.85
75357;HTU21D;63946;51.986;5.930;2023-08-07T10:13:07;20.07;62.22
75357;HTU21D;63946;51.986;5.930;2023-08-07T10:15:36;20.21;61.83
75357;HTU21D;63946;51.986;5.930;2023-08-07T10:18:09;20.18;62.02
75357;HTU21D;63946;51.986;5.930;2023-08-07T10:20:39;20.10;62.31
75357;HTU21D;63946;51.986;5.930;2023-08-07T10:23:11;19.92;62.52
75357;HTU21D;63946;51.986;5.930;2023-08-07T10:25:43;19.74;62.39
75357;HTU21D;63946;51.986;5.930;2023-08-07T10:28:17;19.63;62.71
75357;HTU21D;63946;51.986;5.930;2023-08-07T10:30:47;19.76;62.57
75357;HTU21D;63946;51.986;5.930;2023-08-07T10:33:17;19.82;62.00
75357;HTU21D;63946;51.986;5.930;2023-08-07T10:35:48;19.91;61.69
75357;HTU21D;63946;51.986;5.930;2023-08-07T10:38:19;20.04;61.41
75357;HTU21D;63946;51.986;5.930;2023-08-07T10:41:08;20.06;60.99
75357;HTU21D;63946;51.986;5.930;2023-08-07T10:43:41;19.98;60.88
75357;HTU21D;63946;51.986;5.930;2023-08-07T10:46:12;19.89;60.60
75357;HTU21D;63946;51.986;5.930;2023-08-07T10:48:45;19.84;60.93
75357;HTU21D;63946;51.986;5.930;2023-08-07T10:51:18;19.99;61.10
75357;HTU21D;63946;51.986;5.930;2023-08-07T10:53:48;20.16;60.54
75357;HTU21D;63946;51.986;5.930;2023-08-07T10:56:34;20.11;60.22
75357;HTU21D;63946;51.986;5.930;2023-08-07T10:59:10;19.95;60.51
75357;HTU21D;63946;51.986;5.930;2023-08-07T11:01:42;19.74;61.21
75357;HTU21D;63946;51.986;5.930;2023-08-07T11:04:13;19.75;61.20
75357;HTU21D;63946;51.986;5.930;2023-08-07T11:06:47;19.85;61.00
75357;HTU21D;63946;51.986;5.930;2023-08-07T11:09:16;20.04;60.41
75357;HTU21D;63946;51.986;5.930;2023-08-07T11:11:47;20.25;59.88
75357;HTU21D;63946;51.986;5.930;2023-08-07T11:14:18;20.51;59.49
75357;HTU21D;63946;51.986;5.930;2023-08-07T11:16:50;20.77;59.09
75357;HTU21D;63946;51.986;5.930;2023-08-07T11:19:22;21.05;58.60
75357;HTU21D;63946;51.986;5.930;2023-08-07T11:21:55;21.20;57.78
75357;HTU21D;63946;51.986;5.930;2023-08-07T11:24:27;21.29;57.38
75357;HTU21D;63946;51.986;5.930;2023-08-07T11:26:56;21.36;57.54
75357;HTU21D;63946;51.986;5.930;2023-08-07T11:29:25;21.39;57.61
75357;HTU21D;63946;51.986;5.930;2023-08-07T11:31:54;21.20;57.77
75357;HTU21D;63946;51.986;5.930;2023-08-07T11:34:23;20.92;57.43
75357;HTU21D;63946;51.986;5.930;2023-08-07T11:36:52;20.55;57.78
75357;HTU21D;63946;51.986;5.930;2023-08-07T11:39:21;20.35;57.73
75357;HTU21D;63946;51.986;5.930;2023-08-07T11:41:51;20.13;57.90
75357;HTU21D;63946;51.986;5.930;2023-08-07T11:44:22;19.96;58.07
75357;HTU21D;63946;51.986;5.930;2023-08-07T11:46:51;19.82;57.65
75357;HTU21D;63946;51.986;5.930;2023-08-07T11:49:21;20.04;57.51
75357;HTU21D;63946;51.986;5.930;2023-08-07T11:51:50;20.16;56.73
75357;HTU21D;63946;51.986;5.930;2023-08-07T11:54:21;20.10;57.10
75357;HTU21D;63946;51.986;5.930;2023-08-07T11:56:51;19.99;57.48
75357;HTU21D;63946;51.986;5.930;2023-08-07T11:59:20;19.80;58.14
75357;HTU21D;63946;51.986;5.930;2023-08-07T12:01:49;19.61;58.39
75357;HTU21D;63946;51.986;5.930;2023-08-07T12:04:18;19.59;58.35
75357;HTU21D;63946;51.986;5.930;2023-08-07T12:06:54;19.75;58.06
75357;HTU21D;63946;51.986;5.930;2023-08-07T12:09:23;19.99;57.27
75357;HTU21D;63946;51.986;5.930;2023-08-07T12:11:57;20.32;56.70
75357;HTU21D;63946;51.986;5.930;2023-08-07T12:14:30;20.66;56.29
75357;HTU21D;63946;51.986;5.930;2023-08-07T12:17:02;20.89;55.03
75357;HTU21D;63946;51.986;5.930;2023-08-07T12:19:38;21.03;55.09
75357;HTU21D;63946;51.986;5.930;2023-08-07T12:22:11;21.04;54.78
75357;HTU21D;63946;51.986;5.930;2023-08-07T12:24:40;20.95;54.85
75357;HTU21D;63946;51.986;5.930;2023-08-07T12:27:11;20.94;54.78
75357;HTU21D;63946;51.986;5.930;2023-08-07T12:29:40;20.83;54.75
75357;HTU21D;63946;51.986;5.930;2023-08-07T12:32:09;20.55;55.06
75357;HTU21D;63946;51.986;5.930;2023-08-07T12:34:38;20.44;55.51
75357;HTU21D;63946;51.986;5.930;2023-08-07T12:37:07;20.39;55.96
75357;HTU21D;63946;51.986;5.930;2023-08-07T12:39:35;20.32;56.39
75357;HTU21D;63946;51.986;5.930;2023-08-07T12:42:05;20.21;56.96
75357;HTU21D;63946;51.986;5.930;2023-08-07T12:44:33;20.11;56.77
75357;HTU21D;63946;51.986;5.930;2023-08-07T12:47:02;19.91;56.29
75357;HTU21D;63946;51.986;5.930;2023-08-07T12:49:31;19.72;56.43
75357;HTU21D;63946;51.986;5.930;2023-08-07T12:52:05;19.61;56.40
75357;HTU21D;63946;51.986;5.930;2023-08-07T12:54:34;19.52;56.09
75357;HTU21D;63946;51.986;5.930;2023-08-07T12:57:03;19.81;55.70
75357;HTU21D;63946;51.986;5.930;2023-08-07T12:59:35;20.29;54.86
75357;HTU21D;63946;51.986;5.930;2023-08-07T13:02:04;20.72;54.07
75357;HTU21D;63946;51.986;5.930;2023-08-07T13:04:33;21.10;52.96
75357;HTU21D;63946;51.986;5.930;2023-08-07T13:07:01;21.35;52.69
75357;HTU21D;63946;51.986;5.930;2023-08-07T13:09:31;21.59;51.61
75357;HTU21D;63946;51.986;5.930;2023-08-07T13:11:59;21.50;51.33
75357;HTU21D;63946;51.986;5.930;2023-08-07T13:14:28;21.49;51.56
75357;HTU21D;63946;51.986;5.930;2023-08-07T13:16:57;21.43;51.49
75357;HTU21D;63946;51.986;5.930;2023-08-07T13:19:26;21.34;51.96
75357;HTU21D;63946;51.986;5.930;2023-08-07T13:21:55;21.57;51.37
75357;HTU21D;63946;51.986;5.930;2023-08-07T13:24:23;21.77;49.67
75357;HTU21D;63946;51.986;5.930;2023-08-07T13:26:52;21.89;49.56
75357;HTU21D;63946;51.986;5.930;2023-08-07T13:29:21;22.01;48.89
75357;HTU21D;63946;51.986;5.930;2023-08-07T13:32:07;22.01;48.97
75357;HTU21D;63946;51.986;5.930;2023-08-07T13:34:37;22.11;49.25
75357;HTU21D;63946;51.986;5.930;2023-08-07T13:37:06;22.02;49.02
75357;HTU21D;63946;51.986;5.930;2023-08-07T13:39:35;21.77;50.03
75357;HTU21D;63946;51.986;5.930;2023-08-07T13:42:06;21.69;50.27
75357;HTU21D;63946;51.986;5.930;2023-08-07T13:44:37;21.55;50.37
75357;HTU21D;63946;51.986;5.930;2023-08-07T13:47:05;21.49;50.86
75357;HTU21D;63946;51.986;5.930;2023-08-07T13:49:36;21.31;50.07
75357;HTU21D;63946;51.986;5.930;2023-08-07T13:52:05;21.06;49.89
75357;HTU21D;63946;51.986;5.930;2023-08-07T13:54:34;20.79;50.31
75357;HTU21D;63946;51.986;5.930;2023-08-07T13:57:05;20.58;50.14
75357;HTU21D;63946;51.986;5.930;2023-08-07T13:59:34;20.41;50.65
75357;HTU21D;63946;51.986;5.930;2023-08-07T14:02:06;20.24;50.79
75357;HTU21D;63946;51.986;5.930;2023-08-07T14:04:35;20.18;51.11
75357;HTU21D;63946;51.986;5.930;2023-08-07T14:07:04;20.44;50.69
75357;HTU21D;63946;51.986;5.930;2023-08-07T14:09:33;20.80;49.54
75357;HTU21D;63946;51.986;5.930;2023-08-07T14:12:06;21.01;48.98
75357;HTU21D;63946;51.986;5.930;2023-08-07T14:14:35;21.11;48.20
75357;HTU21D;63946;51.986;5.930;2023-08-07T14:17:04;21.30;48.02
75357;HTU21D;63946;51.986;5.930;2023-08-07T14:19:33;21.54;47.47
75357;HTU21D;63946;51.986;5.930;2023-08-07T14:22:02;21.59;46.93
75357;HTU21D;63946;51.986;5.930;2023-08-07T14:24:31;21.47;47.47
75357;HTU21D;63946;51.986;5.930;2023-08-07T14:26:59;21.55;46.50
75357;HTU21D;63946;51.986;5.930;2023-08-07T14:29:28;21.66;46.43
75357;HTU21D;63946;51.986;5.930;2023-08-07T14:31:57;21.54;45.27
75357;HTU21D;63946;51.986;5.930;2023-08-07T14:34:26;21.48;45.54
75357;HTU21D;63946;51.986;5.930;2023-08-07T14:36:55;21.44;44.87
75357;HTU21D;63946;51.986;5.930;2023-08-07T14:39:24;21.40;45.04
75357;HTU21D;63946;51.986;5.930;2023-08-07T14:41:53;21.44;45.32
75357;HTU21D;63946;51.986;5.930;2023-08-07T14:44:22;21.52;45.45
75357;HTU21D;63946;51.986;5.930;2023-08-07T14:46:51;21.54;45.60
75357;HTU21D;63946;51.986;5.930;2023-08-07T14:49:20;21.62;45.96
75357;HTU21D;63946;51.986;5.930;2023-08-07T14:51:48;21.70;45.83
75357;HTU21D;63946;51.986;5.930;2023-08-07T14:54:17;21.79;45.41
75357;HTU21D;63946;51.986;5.930;2023-08-07T14:56:46;21.74;44.94
75357;HTU21D;63946;51.986;5.930;2023-08-07T14:59:18;21.42;45.27
75357;HTU21D;63946;51.986;5.930;2023-08-07T15:01:47;21.07;45.25
75357;HTU21D;63946;51.986;5.930;2023-08-07T15:04:15;20.72;45.91
75357;HTU21D;63946;51.986;5.930;2023-08-07T15:06:47;20.50;46.51
75357;HTU21D;63946;51.986;5.930;2023-08-07T15:09:16;20.36;47.11
75357;HTU21D;63946;51.986;5.930;2023-08-07T15:11:46;20.27;47.09
75357;HTU21D;63946;51.986;5.930;2023-08-07T15:14:15;20.15;46.96
75357;HTU21D;63946;51.986;5.930;2023-08-07T15:16:44;20.05;47.35
75357;HTU21D;63946;51.986;5.930;2023-08-07T15:19:13;20.20;46.90
75357;HTU21D;63946;51.986;5.930;2023-08-07T15:21:42;20.34;46.83
75357;HTU21D;63946;51.986;5.930;2023-08-07T15:24:10;20.33;47.04
75357;HTU21D;63946;51.986;5.930;2023-08-07T15:26:41;20.32;47.63
75357;HTU21D;63946;51.986;5.930;2023-08-07T15:29:11;20.45;47.19
75357;HTU21D;63946;51.986;5.930;2023-08-07T15:31:40;20.47;46.57
75357;HTU21D;63946;51.986;5.930;2023-08-07T15:34:09;20.48;45.87
75357;HTU21D;63946;51.986;5.930;2023-08-07T15:36:38;20.42;45.54
75357;HTU21D;63946;51.986;5.930;2023-08-07T15:39:09;20.26;45.34
75357;HTU21D;63946;51.986;5.930;2023-08-07T15:41:38;20.05;45.90
75357;HTU21D;63946;51.986;5.930;2023-08-07T15:44:08;19.87;46.42
75357;HTU21D;63946;51.986;5.930;2023-08-07T15:46:37;19.73;46.93
75357;HTU21D;63946;51.986;5.930;2023-08-07T15:49:06;19.67;47.65
75357;HTU21D;63946;51.986;5.930;2023-08-07T15:51:35;19.66;47.86
75357;HTU21D;63946;51.986;5.930;2023-08-07T15:54:06;19.67;48.09
75357;HTU21D;63946;51.986;5.930;2023-08-07T15:56:35;19.67;48.15
75357;HTU21D;63946;51.986;5.930;2023-08-07T15:59:04;19.63;48.67
75357;HTU21D;63946;51.986;5.930;2023-08-07T16:01:32;19.60;49.04
75357;HTU21D;63946;51.986;5.930;2023-08-07T16:04:01;19.59;49.43
75357;HTU21D;63946;51.986;5.930;2023-08-07T16:06:30;19.58;49.53
75357;HTU21D;63946;51.986;5.930;2023-08-07T16:08:59;19.56;49.82
75357;HTU21D;63946;51.986;5.930;2023-08-07T16:11:28;19.50;49.51
75357;HTU21D;63946;51.986;5.930;2023-08-07T16:13:57;19.46;49.64
75357;HTU21D;63946;51.986;5.930;2023-08-07T16:16:26;19.45;50.08
75357;HTU21D;63946;51.986;5.930;2023-08-07T16:18:58;19.43;50.29
75357;HTU21D;63946;51.986;5.930;2023-08-07T16:21:28;19.43;50.66
75357;HTU21D;63946;51.986;5.930;2023-08-07T16:23:57;19.50;51.30
75357;HTU21D;63946;51.986;5.930;2023-08-07T16:26:25;19.57;51.98
75357;HTU21D;63946;51.986;5.930;2023-08-07T16:28:54;19.61;52.59
75357;HTU21D;63946;51.986;5.930;2023-08-07T16:31:23;19.63;53.10
75357;HTU21D;63946;51.986;5.930;2023-08-07T16:33:53;19.60;53.71
75357;HTU21D;63946;51.986;5.930;2023-08-07T16:36:22;19.55;54.16
75357;HTU21D;63946;51.986;5.930;2023-08-07T16:38:50;19.41;54.78
75357;HTU21D;63946;51.986;5.930;2023-08-07T16:41:20;19.32;55.09
75357;HTU21D;63946;51.986;5.930;2023-08-07T16:43:51;19.23;55.49
75357;HTU21D;63946;51.986;5.930;2023-08-07T16:46:20;19.14;55.53
75357;HTU21D;63946;51.986;5.930;2023-08-07T16:48:49;19.10;55.68
75357;HTU21D;63946;51.986;5.930;2023-08-07T16:51:18;19.08;55.82
75357;HTU21D;63946;51.986;5.930;2023-08-07T16:53:47;19.09;55.96
75357;HTU21D;63946;51.986;5.930;2023-08-07T16:56:16;19.05;56.05
75357;HTU21D;63946;51.986;5.930;2023-08-07T16:58:45;18.98;56.13
75357;HTU21D;63946;51.986;5.930;2023-08-07T17:01:16;18.97;56.13
75357;HTU21D;63946;51.986;5.930;2023-08-07T17:03:45;18.98;56.12
75357;HTU21D;63946;51.986;5.930;2023-08-07T17:06:14;18.98;56.02
75357;HTU21D;63946;51.986;5.930;2023-08-07T17:08:45;18.95;56.19
75357;HTU21D;63946;51.986;5.930;2023-08-07T17:11:18;18.89;56.39
75357;HTU21D;63946;51.986;5.930;2023-08-07T17:13:49;18.83;56.51
75357;HTU21D;63946;51.986;5.930;2023-08-07T17:16:18;18.74;56.68
75357;HTU21D;63946;51.986;5.930;2023-08-07T17:18:53;18.72;56.72
75357;HTU21D;63946;51.986;5.930;2023-08-07T17:21:30;18.70;56.77
75357;HTU21D;63946;51.986;5.930;2023-08-07T17:23:59;18.67;56.88
75357;HTU21D;63946;51.986;5.930;2023-08-07T17:26:28;18.65;56.97
75357;HTU21D;63946;51.986;5.930;2023-08-07T17:28:58;18.59;57.45
75357;HTU21D;63946;51.986;5.930;2023-08-07T17:31:28;18.53;57.42
75357;HTU21D;63946;51.986;5.930;2023-08-07T17:34:00;18.54;57.45
75357;HTU21D;63946;51.986;5.930;2023-08-07T17:36:28;18.56;57.46
75357;HTU21D;63946;51.986;5.930;2023-08-07T17:38:57;18.62;57.37
75357;HTU21D;63946;51.986;5.930;2023-08-07T17:41:26;18.65;57.36
75357;HTU21D;63946;51.986;5.930;2023-08-07T17:43:55;18.64;57.47
75357;HTU21D;63946;51.986;5.930;2023-08-07T17:46:27;18.62;57.52
75357;HTU21D;63946;51.986;5.930;2023-08-07T17:48:57;18.56;57.42
75357;HTU21D;63946;51.986;5.930;2023-08-07T17:51:26;18.49;57.52
75357;HTU21D;63946;51.986;5.930;2023-08-07T17:53:58;18.39;57.75
75357;HTU21D;63946;51.986;5.930;2023-08-07T17:56:27;18.34;57.71
75357;HTU21D;63946;51.986;5.930;2023-08-07T17:58:59;18.26;57.74
75357;HTU21D;63946;51.986;5.930;2023-08-07T18:01:27;18.23;57.84
75357;HTU21D;63946;51.986;5.930;2023-08-07T18:03:57;18.18;57.87
75357;HTU21D;63946;51.986;5.930;2023-08-07T18:06:27;18.11;57.95
75357;HTU21D;63946;51.986;5.930;2023-08-07T18:08:56;18.06;57.96
75357;HTU21D;63946;51.986;5.930;2023-08-07T18:11:26;18.03;58.09
75357;HTU21D;63946;51.986;5.930;2023-08-07T18:13:57;17.97;58.17
75357;HTU21D;63946;51.986;5.930;2023-08-07T18:16:26;17.96;58.27
75357;HTU21D;63946;51.986;5.930;2023-08-07T18:18:54;17.96;58.50
75357;HTU21D;63946;51.986;5.930;2023-08-07T18:21:35;17.92;58.65
75357;HTU21D;63946;51.986;5.930;2023-08-07T18:24:06;17.90;58.61
75357;HTU21D;63946;51.986;5.930;2023-08-07T18:26:35;17.85;58.83
75357;HTU21D;63946;51.986;5.930;2023-08-07T18:29:05;17.80;58.92
75357;HTU21D;63946;51.986;5.930;2023-08-07T18:31:34;17.76;59.09
75357;HTU21D;63946;51.986;5.930;2023-08-07T18:34:03;17.73;59.21
75357;HTU21D;63946;51.986;5.930;2023-08-07T18:36:32;17.72;59.37
75357;HTU21D;63946;51.986;5.930;2023-08-07T18:39:02;17.67;59.69
75357;HTU21D;63946;51.986;5.930;2023-08-07T18:41:32;17.61;59.79
75357;HTU21D;63946;51.986;5.930;2023-08-07T18:44:02;17.58;60.06
75357;HTU21D;63946;51.986;5.930;2023-08-07T18:46:33;17.53;60.21
75357;HTU21D;63946;51.986;5.930;2023-08-07T18:49:02;17.47;60.35
75357;HTU21D;63946;51.986;5.930;2023-08-07T18:51:31;17.45;60.47
75357;HTU21D;63946;51.986;5.930;2023-08-07T18:54:01;17.40;60.58
75357;HTU21D;63946;51.986;5.930;2023-08-07T18:56:30;17.38;60.76
75357;HTU21D;63946;51.986;5.930;2023-08-07T18:59:00;17.34;61.00
75357;HTU21D;63946;51.986;5.930;2023-08-07T19:01:32;17.33;61.12
75357;HTU21D;63946;51.986;5.930;2023-08-07T19:04:04;17.29;61.29
75357;HTU21D;63946;51.986;5.930;2023-08-07T19:06:33;17.28;61.44
75357;HTU21D;63946;51.986;5.930;2023-08-07T19:09:02;17.24;61.54
75357;HTU21D;63946;51.986;5.930;2023-08-07T19:11:31;17.22;61.72
75357;HTU21D;63946;51.986;5.930;2023-08-07T19:14:00;17.18;61.86
75357;HTU21D;63946;51.986;5.930;2023-08-07T19:16:29;17.15;62.04
75357;HTU21D;63946;51.986;5.930;2023-08-07T19:18:58;17.13;62.25
75357;HTU21D;63946;51.986;5.930;2023-08-07T19:21:27;17.08;62.37
75357;HTU21D;63946;51.986;5.930;2023-08-07T19:23:56;17.02;62.64
75357;HTU21D;63946;51.986;5.930;2023-08-07T19:26:25;17.01;62.85
75357;HTU21D;63946;51.986;5.930;2023-08-07T19:28:54;16.96;62.98
75357;HTU21D;63946;51.986;5.930;2023-08-07T19:31:23;16.94;63.09
75357;HTU21D;63946;51.986;5.930;2023-08-07T19:33:52;16.92;63.26
75357;HTU21D;63946;51.986;5.930;2023-08-07T19:36:27;16.89;63.40
75357;HTU21D;63946;51.986;5.930;2023-08-07T19:38:56;16.86;63.50
75357;HTU21D;63946;51.986;5.930;2023-08-07T19:41:24;16.84;63.66
75357;HTU21D;63946;51.986;5.930;2023-08-07T19:43:53;16.79;63.79
75357;HTU21D;63946;51.986;5.930;2023-08-07T19:46:22;16.77;63.92
75357;HTU21D;63946;51.986;5.930;2023-08-07T19:48:51;16.76;64.05
75357;HTU21D;63946;51.986;5.930;2023-08-07T19:51:21;16.71;64.13
75357;HTU21D;63946;51.986;5.930;2023-08-07T19:53:50;16.71;64.25
75357;HTU21D;63946;51.986;5.930;2023-08-07T19:56:18;16.67;64.37
75357;HTU21D;63946;51.986;5.930;2023-08-07T19:58:47;16.65;64.59
75357;HTU21D;63946;51.986;5.930;2023-08-07T20:01:18;16.63;64.69
75357;HTU21D;63946;51.986;5.930;2023-08-07T20:03:47;16.59;64.84
75357;HTU21D;63946;51.986;5.930;2023-08-07T20:06:16;16.55;64.98
75357;HTU21D;63946;51.986;5.930;2023-08-07T20:08:44;16.50;65.13
75357;HTU21D;63946;51.986;5.930;2023-08-07T20:11:13;16.47;65.27
75357;HTU21D;63946;51.986;5.930;2023-08-07T20:13:42;16.49;65.27
75357;HTU21D;63946;51.986;5.930;2023-08-07T20:16:11;16.43;65.40
75357;HTU21D;63946;51.986;5.930;2023-08-07T20:18:40;16.41;65.49
75357;HTU21D;63946;51.986;5.930;2023-08-07T20:21:11;16.37;65.57
75357;HTU21D;63946;51.986;5.930;2023-08-07T20:23:42;16.36;65.68
75357;HTU21D;63946;51.986;5.930;2023-08-07T20:26:10;16.33;65.80
75357;HTU21D;63946;51.986;5.930;2023-08-07T20:28:39;16.30;65.88